createdAt,value
2023-06-29T00:00:49.484Z,-84
2023-06-29T00:03:21.921Z,-83
2023-06-29T00:05:56.674Z,-80
2023-06-29T00:08:30.851Z,-81
2023-06-29T00:11:04.172Z,-80
2023-06-29T00:13:39.271Z,-78
2023-06-29T00:16:11.795Z,-78
2023-06-29T00:18:44.212Z,-78
2023-06-29T00:21:16.819Z,-77
2023-06-29T00:23:49.214Z,-77
2023-06-29T00:26:24.075Z,-78
2023-06-29T00:28:59.401Z,-76
2023-06-29T00:31:32.047Z,-77
2023-06-29T00:34:04.518Z,-75
2023-06-29T00:36:37.945Z,-77
2023-06-29T00:39:10.657Z,-76
2023-06-29T00:41:58.053Z,-73
2023-06-29T00:44:33.039Z,-74
2023-06-29T00:47:05.953Z,-73
2023-06-29T00:49:38.425Z,-73
2023-06-29T00:52:12.335Z,-73
2023-06-29T00:54:45.899Z,-74
2023-06-29T00:57:18.622Z,-74
2023-06-29T00:59:53.592Z,-73
2023-06-29T01:02:26.325Z,-73
2023-06-29T01:04:58.848Z,-72
2023-06-29T01:07:37.949Z,-73
2023-06-29T01:10:12.930Z,-74
2023-06-29T01:12:46.880Z,-73
2023-06-29T01:15:22.250Z,-75
2023-06-29T01:18:00.063Z,-73
2023-06-29T01:20:35.355Z,-74
2023-06-29T01:23:16.240Z,-73
2023-06-29T01:25:51.585Z,-74
2023-06-29T01:28:23.970Z,-74
2023-06-29T01:30:57.296Z,-74
2023-06-29T01:33:30.923Z,-73
2023-06-29T01:36:10.615Z,-74
2023-06-29T01:38:52.898Z,-74
2023-06-29T01:41:30.703Z,-73
2023-06-29T01:44:07.878Z,-73
2023-06-29T01:46:41.326Z,-73
2023-06-29T01:49:14.112Z,-73
2023-06-29T01:51:46.642Z,-73
2023-06-29T01:54:18.998Z,-75
2023-06-29T01:56:54.053Z,-75
2023-06-29T01:59:26.519Z,-73
2023-06-29T02:01:58.929Z,-73
2023-06-29T02:04:31.295Z,-74
2023-06-29T02:07:04.012Z,-73
2023-06-29T02:09:36.537Z,-73
2023-06-29T02:12:13.012Z,-73
2023-06-29T02:14:45.405Z,-73
2023-06-29T02:17:17.937Z,-73
2023-06-29T02:19:50.355Z,-74
2023-06-29T02:22:22.783Z,-74
2023-06-29T02:24:55.184Z,-72
2023-06-29T02:27:33.357Z,-72
2023-06-29T02:30:05.744Z,-73
2023-06-29T02:32:38.196Z,-73
2023-06-29T02:35:11.530Z,-74
2023-06-29T02:37:44.037Z,-72
2023-06-29T02:40:17.285Z,-72
2023-06-29T02:42:52.178Z,-74
2023-06-29T02:45:24.579Z,-73
2023-06-29T02:47:58.062Z,-74
2023-06-29T02:50:30.570Z,-74
2023-06-29T02:53:03.068Z,-73
2023-06-29T02:55:36.229Z,-74
2023-06-29T02:58:11.569Z,-74
2023-06-29T03:00:43.862Z,-73
2023-06-29T03:03:16.263Z,-74
2023-06-29T03:05:48.812Z,-73
2023-06-29T03:08:21.321Z,-74
2023-06-29T03:10:53.782Z,-73
2023-06-29T03:13:28.877Z,-73
2023-06-29T03:16:02.547Z,-73
2023-06-29T03:18:34.937Z,-73
2023-06-29T03:21:16.215Z,-72
2023-06-29T03:23:50.952Z,-73
2023-06-29T03:26:23.589Z,-74
2023-06-29T03:28:58.514Z,-73
2023-06-29T03:31:30.938Z,-74
2023-06-29T03:34:05.461Z,-73
2023-06-29T03:36:38.117Z,-73
2023-06-29T03:39:10.506Z,-73
2023-06-29T03:41:42.922Z,-75
2023-06-29T03:44:17.855Z,-73
2023-06-29T03:46:50.366Z,-73
2023-06-29T03:49:22.809Z,-74
2023-06-29T03:51:55.275Z,-75
2023-06-29T03:54:28.051Z,-73
2023-06-29T03:57:00.584Z,-74
2023-06-29T03:59:35.618Z,-73
2023-06-29T04:02:09.892Z,-73
2023-06-29T04:04:43.891Z,-73
2023-06-29T04:07:16.537Z,-74
2023-06-29T04:09:49.016Z,-74
2023-06-29T04:12:21.436Z,-73
2023-06-29T04:14:56.361Z,-73
2023-06-29T04:17:28.842Z,-74
2023-06-29T04:20:01.222Z,-73
2023-06-29T04:22:33.508Z,-74
2023-06-29T04:25:05.857Z,-73
2023-06-29T04:27:38.453Z,-73
2023-06-29T04:30:14.399Z,-74
2023-06-29T04:32:47.002Z,-74
2023-06-29T04:35:19.571Z,-74
2023-06-29T04:37:52.115Z,-73
2023-06-29T04:40:24.432Z,-74
2023-06-29T04:42:59.628Z,-74
2023-06-29T04:45:35.599Z,-74
2023-06-29T04:48:08.443Z,-74
2023-06-29T04:50:40.788Z,-74
2023-06-29T04:53:13.776Z,-74
2023-06-29T04:55:47.019Z,-73
2023-06-29T04:58:19.624Z,-74
2023-06-29T05:00:55.477Z,-74
2023-06-29T05:03:29.313Z,-74
2023-06-29T05:06:01.883Z,-74
2023-06-29T05:08:34.537Z,-75
2023-06-29T05:11:06.895Z,-74
2023-06-29T05:13:39.252Z,-73
2023-06-29T05:16:14.422Z,-75
2023-06-29T05:18:46.808Z,-73
2023-06-29T05:21:19.978Z,-73
2023-06-29T05:23:52.365Z,-74
2023-06-29T05:26:24.877Z,-74
2023-06-29T05:29:05.026Z,-74
2023-06-29T05:31:40.947Z,-74
2023-06-29T05:34:13.324Z,-73
2023-06-29T05:36:45.984Z,-72
2023-06-29T05:39:18.663Z,-73
2023-06-29T05:41:50.955Z,-74
2023-06-29T05:44:23.389Z,-74
2023-06-29T05:46:58.371Z,-73
2023-06-29T05:49:30.761Z,-73
2023-06-29T05:52:03.142Z,-74
2023-06-29T05:54:35.433Z,-74
2023-06-29T05:57:08.517Z,-73
2023-06-29T05:59:40.864Z,-74
2023-06-29T06:02:15.829Z,-74
2023-06-29T06:04:48.258Z,-74
2023-06-29T06:07:30.757Z,-74
2023-06-29T06:10:03.238Z,-74
2023-06-29T06:12:35.603Z,-73
2023-06-29T06:15:12.730Z,-73
2023-06-29T06:17:49.698Z,-74
2023-06-29T06:20:22.194Z,-72
2023-06-29T06:22:54.638Z,-72
2023-06-29T06:25:27.814Z,-72
2023-06-29T06:28:00.389Z,-73
2023-06-29T06:30:32.987Z,-73
2023-06-29T06:33:08.118Z,-74
2023-06-29T06:35:40.785Z,-74
2023-06-29T06:38:13.177Z,-74
2023-06-29T06:40:45.720Z,-72
2023-06-29T06:43:19.096Z,-73
2023-06-29T06:45:51.447Z,-73
2023-06-29T06:48:26.592Z,-73
2023-06-29T06:50:59.012Z,-73
2023-06-29T06:53:31.379Z,-73
2023-06-29T06:56:03.718Z,-73
2023-06-29T06:58:40.127Z,-72
2023-06-29T07:01:12.749Z,-74
2023-06-29T07:03:47.965Z,-74
2023-06-29T07:06:20.438Z,-72
2023-06-29T07:08:53.024Z,-73
2023-06-29T07:11:25.369Z,-72
2023-06-29T07:13:57.730Z,-73
2023-06-29T07:16:30.227Z,-72
2023-06-29T07:24:25.886Z,-73
2023-06-29T07:26:58.296Z,-73
2023-06-29T07:29:31.783Z,-73
2023-06-29T07:32:04.184Z,-73
2023-06-29T07:34:39.082Z,-72
2023-06-29T07:37:11.995Z,-73
2023-06-29T07:39:44.382Z,-74
2023-06-29T07:42:26.370Z,-73
2023-06-29T07:45:07.800Z,-74
2023-06-29T07:47:40.423Z,-74
2023-06-29T07:50:16.014Z,-73
2023-06-29T07:52:48.371Z,-73
2023-06-29T07:55:20.816Z,-73
2023-06-29T08:00:28.703Z,-72
2023-06-29T08:03:01.107Z,-72
2023-06-29T08:08:11.916Z,-73
2023-06-29T08:10:45.637Z,-72
2023-06-29T08:13:18.120Z,-73
2023-06-29T08:15:50.412Z,-72
2023-06-29T08:18:22.764Z,-72
2023-06-29T08:20:57.792Z,-72
2023-06-29T08:23:30.263Z,-71
2023-06-29T08:26:02.703Z,-71
2023-06-29T08:28:35.084Z,-72
2023-06-29T08:31:07.989Z,-72
2023-06-29T08:33:40.605Z,-71
2023-06-29T08:36:16.675Z,-71
2023-06-29T08:38:50.743Z,-71
2023-06-29T08:41:23.519Z,-72
2023-06-29T08:43:56.341Z,-72
2023-06-29T08:46:31.588Z,-72
2023-06-29T08:49:07.443Z,-71
2023-06-29T08:51:48.479Z,-72
2023-06-29T08:54:22.545Z,-71
2023-06-29T08:56:56.535Z,-71
2023-06-29T08:59:31.499Z,-72
2023-06-29T09:02:04.533Z,-71
2023-06-29T09:04:37.752Z,-73
2023-06-29T09:07:13.553Z,-71
2023-06-29T09:09:46.304Z,-72
2023-06-29T09:12:19.928Z,-71
2023-06-29T09:14:52.753Z,-72
2023-06-29T09:17:26.877Z,-72
2023-06-29T09:20:01.849Z,-71
2023-06-29T09:22:36.823Z,-71
2023-06-29T09:25:27.731Z,-71
2023-06-29T09:28:07.924Z,-73
2023-06-29T09:30:42.424Z,-72
2023-06-29T09:33:16.945Z,-71
2023-06-29T09:35:51.476Z,-72
2023-06-29T09:38:26.737Z,-71
2023-06-29T09:41:00.936Z,-71
2023-06-29T09:43:35.532Z,-72
2023-06-29T09:46:13.710Z,-71
2023-06-29T09:51:26.502Z,-72
2023-06-29T09:54:01.418Z,-71
2023-06-29T09:56:36.749Z,-71
2023-06-29T09:59:10.602Z,-71
2023-06-29T10:01:43.955Z,-72
2023-06-29T10:04:16.324Z,-72
2023-06-29T10:06:53.720Z,-71
2023-06-29T10:09:30.427Z,-72
2023-06-29T10:12:06.711Z,-72
2023-06-29T10:14:41.533Z,-71
2023-06-29T10:17:20.684Z,-71
2023-06-29T10:19:57.334Z,-72
2023-06-29T10:22:33.487Z,-70
2023-06-29T10:25:14.972Z,-71
2023-06-29T10:27:49.532Z,-71
2023-06-29T10:30:24.499Z,-70
2023-06-29T10:32:57.254Z,-72
2023-06-29T10:35:29.669Z,-72
2023-06-29T10:38:02.797Z,-71
2023-06-29T10:40:38.690Z,-71
2023-06-29T10:43:13.264Z,-70
2023-06-29T10:45:45.897Z,-72
2023-06-29T10:48:42.840Z,-71
2023-06-29T10:51:18.309Z,-71
2023-06-29T10:53:53.783Z,-71
2023-06-29T10:56:38.369Z,-72
2023-06-29T10:59:14.475Z,-70
2023-06-29T11:01:47.373Z,-70
2023-06-29T11:04:20.845Z,-71
2023-06-29T11:06:53.628Z,-71
2023-06-29T11:09:26.433Z,-71
2023-06-29T11:12:01.465Z,-70
2023-06-29T11:14:41.488Z,-70
2023-06-29T11:17:14.635Z,-71
2023-06-29T11:19:51.204Z,-71
2023-06-29T11:22:24.104Z,-70
2023-06-29T11:24:56.421Z,-73
2023-06-29T11:27:32.418Z,-70
2023-06-29T11:30:06.136Z,-70
2023-06-29T11:32:39.188Z,-70
2023-06-29T11:35:14.023Z,-71
2023-06-29T11:37:46.436Z,-70
2023-06-29T11:40:23.954Z,-71
2023-06-29T11:42:59.347Z,-71
2023-06-29T11:45:32.125Z,-70
2023-06-29T11:48:05.817Z,-71
2023-06-29T11:50:38.867Z,-71
2023-06-29T11:53:13.197Z,-72
2023-06-29T11:55:54.112Z,-71
2023-06-29T11:58:38.115Z,-70
2023-06-29T12:01:11.272Z,-69
2023-06-29T12:03:44.293Z,-72
2023-06-29T12:06:16.756Z,-72
2023-06-29T12:08:49.395Z,-71
2023-06-29T12:11:23.444Z,-72
2023-06-29T12:13:59.749Z,-71
2023-06-29T12:19:15.369Z,-72
2023-06-29T12:21:48.329Z,-72
2023-06-29T12:24:21.931Z,-71
2023-06-29T12:26:54.530Z,-69
2023-06-29T12:29:29.547Z,-71
2023-06-29T12:32:04.526Z,-71
2023-06-29T12:34:36.812Z,-71
2023-06-29T12:37:09.332Z,-70
2023-06-29T12:39:41.658Z,-70
2023-06-29T12:42:13.976Z,-70
2023-06-29T12:44:48.921Z,-70
2023-06-29T12:47:22.838Z,-70
2023-06-29T12:49:55.298Z,-70
2023-06-29T12:52:27.923Z,-70
2023-06-29T12:55:00.360Z,-70
2023-06-29T12:57:33.884Z,-71
2023-06-29T13:00:10.077Z,-72
2023-06-29T13:02:42.615Z,-72
2023-06-29T13:05:15.813Z,-71
2023-06-29T13:07:48.532Z,-72
2023-06-29T13:10:21.592Z,-71
2023-06-29T13:12:54.022Z,-73
2023-06-29T13:15:28.984Z,-72
2023-06-29T13:18:02.484Z,-71
2023-06-29T13:20:34.866Z,-71
2023-06-29T13:23:07.290Z,-73
2023-06-29T13:25:39.663Z,-71
2023-06-29T13:28:13.327Z,-72
2023-06-29T13:30:48.321Z,-72
2023-06-29T13:33:20.675Z,-70
2023-06-29T13:35:53.134Z,-72
2023-06-29T13:38:25.545Z,-71
2023-06-29T13:40:57.843Z,-72
2023-06-29T13:43:30.178Z,-71
2023-06-29T13:46:05.410Z,-72
2023-06-29T13:48:38.051Z,-72
2023-06-29T13:51:10.423Z,-71
2023-06-29T13:53:42.745Z,-71
2023-06-29T13:56:15.234Z,-71
2023-06-29T13:58:47.621Z,-71
2023-06-29T14:01:22.767Z,-71
2023-06-29T14:03:55.358Z,-71
2023-06-29T14:06:28.988Z,-71
2023-06-29T14:09:01.345Z,-73
2023-06-29T14:11:33.883Z,-72
2023-06-29T14:14:06.594Z,-72
2023-06-29T14:16:44.194Z,-72
2023-06-29T14:19:16.558Z,-71
2023-06-29T14:21:48.830Z,-71
2023-06-29T14:24:21.184Z,-70
2023-06-29T14:26:55.060Z,-71
2023-06-29T14:29:27.589Z,-70
2023-06-29T14:32:02.497Z,-69
2023-06-29T14:34:34.924Z,-72
2023-06-29T14:37:07.282Z,-70
2023-06-29T14:39:39.598Z,-72
2023-06-29T14:42:13.358Z,-71
2023-06-29T14:44:46.354Z,-71
2023-06-29T14:47:22.790Z,-72
2023-06-29T14:49:55.193Z,-71
2023-06-29T14:52:27.641Z,-71
2023-06-29T14:54:59.935Z,-71
2023-06-29T14:57:32.327Z,-71
2023-06-29T15:00:04.659Z,-71
2023-06-29T15:02:39.827Z,-70
2023-06-29T15:05:13.024Z,-71
2023-06-29T15:07:45.576Z,-71
2023-06-29T15:10:17.973Z,-70
2023-06-29T15:12:50.385Z,-70
2023-06-29T15:15:23.649Z,-70
2023-06-29T15:17:58.765Z,-72
2023-06-29T15:20:31.196Z,-70
2023-06-29T15:23:03.624Z,-70
2023-06-29T15:25:37.769Z,-71
2023-06-29T15:28:11.831Z,-70
2023-06-29T15:30:52.835Z,-70
2023-06-29T15:33:28.966Z,-71
2023-06-29T15:36:01.310Z,-71
2023-06-29T15:38:35.001Z,-71
2023-06-29T15:41:07.437Z,-70
2023-06-29T15:43:39.884Z,-70
2023-06-29T15:46:12.432Z,-71
2023-06-29T15:48:47.408Z,-71
2023-06-29T15:51:19.963Z,-70
2023-06-29T15:53:52.810Z,-71
2023-06-29T15:56:25.163Z,-70
2023-06-29T15:58:58.383Z,-72
2023-06-29T16:01:30.714Z,-71
2023-06-29T16:04:05.847Z,-70
2023-06-29T16:06:39.893Z,-70
2023-06-29T16:09:12.239Z,-71
2023-06-29T16:11:44.652Z,-70
2023-06-29T16:14:16.986Z,-70
2023-06-29T16:16:49.545Z,-71
2023-06-29T16:19:24.645Z,-70
2023-06-29T16:21:57.031Z,-72
2023-06-29T16:24:29.424Z,-70
2023-06-29T16:27:01.921Z,-70
2023-06-29T16:29:34.435Z,-71
2023-06-29T16:32:07.066Z,-70
2023-06-29T16:34:42.312Z,-69
2023-06-29T16:37:17.431Z,-71
2023-06-29T16:39:49.906Z,-71
2023-06-29T16:42:22.290Z,-70
2023-06-29T16:44:54.660Z,-71
2023-06-29T16:47:27.031Z,-71
2023-06-29T16:50:01.983Z,-71
2023-06-29T16:52:34.443Z,-70
2023-06-29T16:55:07.838Z,-72
2023-06-29T16:57:40.318Z,-71
2023-06-29T17:00:13.901Z,-71
2023-06-29T17:02:46.465Z,-71
2023-06-29T17:05:21.676Z,-71
2023-06-29T17:07:56.774Z,-73
2023-06-29T17:10:29.700Z,-72
2023-06-29T17:13:01.987Z,-72
2023-06-29T17:15:34.310Z,-70
2023-06-29T17:18:06.629Z,-72
2023-06-29T17:20:41.714Z,-71
2023-06-29T17:23:14.242Z,-71
2023-06-29T17:25:50.571Z,-72
2023-06-29T17:28:24.357Z,-71
2023-06-29T17:30:57.131Z,-70
2023-06-29T17:33:35.339Z,-71
2023-06-29T17:36:20.226Z,-70
2023-06-29T17:38:52.644Z,-72
2023-06-29T17:41:25.043Z,-71
2023-06-29T17:43:57.433Z,-72
2023-06-29T17:46:30.235Z,-71
2023-06-29T17:49:02.555Z,-71
2023-06-29T17:51:37.478Z,-71
2023-06-29T17:54:10.080Z,-72
2023-06-29T17:56:42.607Z,-72
2023-06-29T17:59:14.942Z,-71
2023-06-29T18:01:47.280Z,-71
2023-06-29T18:04:19.733Z,-72
2023-06-29T18:06:55.269Z,-71
2023-06-29T18:09:27.763Z,-73
2023-06-29T18:12:00.133Z,-72
2023-06-29T18:14:32.514Z,-72
2023-06-29T18:17:05.953Z,-72
2023-06-29T18:19:38.312Z,-73
2023-06-29T18:22:13.741Z,-71
2023-06-29T18:24:46.143Z,-71
2023-06-29T18:27:18.728Z,-72
2023-06-29T18:29:51.023Z,-72
2023-06-29T18:32:23.362Z,-71
2023-06-29T18:34:55.635Z,-73
2023-06-29T18:37:30.663Z,-71
2023-06-29T18:40:03.042Z,-73
2023-06-29T18:42:35.298Z,-72
2023-06-29T18:45:07.822Z,-72
2023-06-29T18:47:40.636Z,-73
2023-06-29T18:50:13.876Z,-72
2023-06-29T18:52:48.815Z,-71
2023-06-29T18:55:21.306Z,-72
2023-06-29T18:57:53.820Z,-72
2023-06-29T19:00:26.827Z,-72
2023-06-29T19:03:01.262Z,-71
2023-06-29T19:05:34.743Z,-71
2023-06-29T19:08:09.880Z,-72
2023-06-29T19:10:42.222Z,-72
2023-06-29T19:13:15.404Z,-70
2023-06-29T19:15:48.208Z,-73
2023-06-29T19:18:23.636Z,-73
2023-06-29T19:20:57.207Z,-72
2023-06-29T19:23:32.047Z,-74
2023-06-29T19:26:04.628Z,-72
2023-06-29T19:28:37.027Z,-72
2023-06-29T19:31:09.428Z,-71
2023-06-29T19:33:42.162Z,-72
2023-06-29T19:36:14.822Z,-71
2023-06-29T19:38:49.931Z,-72
2023-06-29T19:41:22.367Z,-72
2023-06-29T19:43:54.757Z,-74
2023-06-29T19:46:27.267Z,-73
2023-06-29T19:48:59.772Z,-73
2023-06-29T19:51:35.195Z,-71
2023-06-29T19:54:10.363Z,-72
2023-06-29T19:56:42.815Z,-71
2023-06-29T19:59:15.203Z,-71
2023-06-29T20:01:47.593Z,-71
2023-06-29T20:04:20.138Z,-74
2023-06-29T20:06:52.771Z,-73
2023-06-29T20:09:29.887Z,-73
2023-06-29T20:12:02.188Z,-72
2023-06-29T20:14:35.388Z,-72
2023-06-29T20:17:08.077Z,-72
2023-06-29T20:19:40.524Z,-74
2023-06-29T20:22:12.900Z,-72
2023-06-29T20:24:47.985Z,-72
2023-06-29T20:27:20.682Z,-73
2023-06-29T20:29:54.232Z,-72
2023-06-29T20:32:27.836Z,-71
2023-06-29T20:35:00.237Z,-72
2023-06-29T20:37:32.682Z,-71
2023-06-29T20:40:07.923Z,-71
2023-06-29T20:42:40.634Z,-72
2023-06-29T20:45:15.421Z,-73
2023-06-29T20:47:48.104Z,-71
2023-06-29T20:50:20.585Z,-72
2023-06-29T20:52:52.977Z,-72
2023-06-29T20:55:27.936Z,-72
2023-06-29T20:58:01.490Z,-71
2023-06-29T21:00:35.470Z,-71
2023-06-29T21:03:09.058Z,-71
2023-06-29T21:05:41.517Z,-72
2023-06-29T21:08:14.009Z,-72
2023-06-29T21:10:49.084Z,-72
2023-06-29T21:13:22.272Z,-71
2023-06-29T21:15:54.896Z,-71
2023-06-29T21:18:28.278Z,-71
2023-06-29T21:21:01.253Z,-72
2023-06-29T21:23:33.865Z,-71
2023-06-29T21:26:09.538Z,-71
2023-06-29T21:28:46.728Z,-71
2023-06-29T21:31:20.133Z,-73
2023-06-29T21:33:52.819Z,-71
2023-06-29T21:36:25.572Z,-71
2023-06-29T21:38:58.464Z,-71
2023-06-29T21:41:33.427Z,-71
2023-06-29T21:44:05.710Z,-72
2023-06-29T21:46:38.214Z,-70
2023-06-29T21:49:10.599Z,-73
2023-06-29T21:51:43.046Z,-72
2023-06-29T21:54:15.531Z,-72
2023-06-29T21:56:52.825Z,-70
2023-06-29T21:59:25.165Z,-72
2023-06-29T22:01:57.494Z,-72
2023-06-29T22:04:29.889Z,-72
2023-06-29T22:07:15.422Z,-71
2023-06-29T22:09:48.681Z,-72
2023-06-29T22:12:24.461Z,-70
2023-06-29T22:14:56.925Z,-71
2023-06-29T22:17:29.521Z,-71
2023-06-29T22:20:18.100Z,-71
2023-06-29T22:22:50.488Z,-72
2023-06-29T22:25:22.873Z,-73
2023-06-29T22:27:58.116Z,-72
2023-06-29T22:30:30.523Z,-72
2023-06-29T22:33:02.913Z,-73
2023-06-29T22:35:35.713Z,-73
2023-06-29T22:38:09.836Z,-73
2023-06-29T22:40:42.977Z,-73
2023-06-29T22:43:17.990Z,-71
2023-06-29T22:45:50.309Z,-72
2023-06-29T22:48:23.914Z,-73
2023-06-29T22:50:56.869Z,-71
2023-06-29T22:53:29.847Z,-72
2023-06-29T22:56:02.390Z,-72
2023-06-29T22:58:37.466Z,-73
2023-06-29T23:01:09.793Z,-71
2023-06-29T23:03:42.181Z,-71
2023-06-29T23:06:14.800Z,-72
2023-06-29T23:08:48.008Z,-72
2023-06-29T23:11:20.410Z,-72
2023-06-29T23:13:57.147Z,-75
2023-06-29T23:16:32.907Z,-73
2023-06-29T23:19:05.792Z,-70
2023-06-29T23:21:38.094Z,-73
2023-06-29T23:24:15.524Z,-71
2023-06-29T23:26:48.937Z,-72
2023-06-29T23:29:23.891Z,-72
2023-06-29T23:31:56.269Z,-73
2023-06-29T23:34:29.299Z,-71
2023-06-29T23:37:01.885Z,-71
2023-06-29T23:39:37.829Z,-71
2023-06-29T23:42:11.361Z,-71
2023-06-29T23:44:47.588Z,-73
2023-06-29T23:47:21.586Z,-72
2023-06-29T23:49:53.903Z,-71
2023-06-29T23:52:26.309Z,-70
2023-06-29T23:54:58.597Z,-71
2023-06-29T23:57:31.104Z,-70
